KHSI

Hastings Municipal Airport

Hastings, Nebraska, USA
METAR KHSI 172153Z AUTO VRB03KT 10SM CLR 28/18 A3013 RMK AO2 SLP189 T02830183
Observed Flight Rules
Aug-17 @ 21:53 UTC (42 minutes ago) Visual Flight Rules
Wind Visibility Clouds
Variable at 3 knots 10 miles
  • Clear skies
Temperatures Readings
Current 28°C / 82°F
Dewpoint 18°C / 64°F
Humidity 55%
Altimeter 30.13" Hg
Pressure 1018.9 hPa
Elevation 591
METAR KHSI 172153Z AUTO VRB03KT 10SM CLR 28/18 A3013 RMK AO2 SLP189 T02830183
Observed Flight Rules
Aug-17 @ 21:53 UTC
(42 minutes ago)
VFR
Wind Visibility
Variable at 3 knots 10 miles
Clouds
  • Clear skies
Temperature Dewpoint
28°C / 82°F 18°C / 64°F
Humidity Altimeter Pressure
55% 30.13" Hg 1018.9 hPa